MET'MAP v2.0
soon released !

Expected late october,
this new version will be
more efficient, smarter,
and hosted on a brand new
server x3 powerfull...
...and still free !


Not compatible ?
Try the mobile version !

LOG IN : | Subscribe | Disclaimer | Who is Orbifly ? |
ICAO code :

TAF - ESGG Landvetter - 25 Oct 2020 04:00 UTC - Data Source NOAA   


- Airport Elevation : 506 ft
- IATA code : GOT
- No reported NOTAMs.


ESGG - Landvetter

Latest METAR recorded : 2015/08/11 08:20 ESGG 110820Z 14006KT 9999 BKN044 16/13 Q1018
TAF TAF ESGG
Valid from the 25 at 00:00 until the 26 at 00:00 UTC


242330Z 2500/2524 18007KT 9999 FEW004 BKN020
TEMPO 2500/2509 4000 -RADZ BKN004
BECMG 2504/2507 18016G28KT
TEMPO 2509/2518 4000 RA BKN007
BECMG 2516/2518 20012KT
PROB40 2518/2524 BKN008

Source NOAA


MET'MAP, your aeronautical weather chart ! - Copyright ORBIFLY December 2007

Programming & Development : Alexandra Zaïnal
Co-Developer : Marc-Olivier Méhu
Technical & hardware support : Manuel Goepfert
Concept & Financing : Baudouin d'Aumeries